Time;durP1;ratioP1;P1;durP2;ratioP2;P2;SDS_P1;SDS_P2;PMS_P1;PMS_P2;Temp;Humidity;BMP_temperature;BMP_pressure;BME280_temperature;BME280_humidity;BME280_pressure;Samples;Min_cycle;Max_cycle;Signal;HPM_P1;HPM_P2
2021/08/20 00:03:46;;;;;;;8.90;4.90;;;;;16.30;101082.00;;;;12933537;22;20161;-76
2021/08/20 00:08:47;;;;;;;10.25;5.75;;;;;16.40;101073.00;;;;12887375;22;20177;-76
2021/08/20 00:13:49;;;;;;;6.82;5.55;;;;;16.40;101075.00;;;;12887183;22;20169;-76
2021/08/20 00:18:50;;;;;;;6.55;5.32;;;;;16.40;101068.00;;;;12886888;22;20200;-75
2021/08/20 00:23:51;;;;;;;7.95;5.45;;;;;16.50;101065.00;;;;12911795;22;20809;-76
2021/08/20 00:28:52;;;;;;;10.63;6.90;;;;;16.50;101071.00;;;;12861870;22;20209;-75
2021/08/20 00:33:53;;;;;;;12.23;8.00;;;;;16.60;101075.00;;;;12887023;22;20169;-75
2021/08/20 00:38:54;;;;;;;11.75;7.32;;;;;16.60;101066.00;;;;12886785;22;20193;-75
2021/08/20 00:43:55;;;;;;;11.43;8.70;;;;;16.60;101067.00;;;;12886275;22;20169;-76
2021/08/20 00:48:58;;;;;;;12.02;8.07;;;;;16.70;101061.00;;;;12861694;22;20261;-76
2021/08/20 00:53:59;;;;;;;13.70;9.02;;;;;16.70;101063.00;;;;12911218;22;20173;-75
2021/08/20 00:59:02;;;;;;;15.68;9.60;;;;;16.70;101069.00;;;;12861959;22;20205;-76
2021/08/20 01:04:05;;;;;;;12.85;9.13;;;;;16.70;101060.00;;;;12865181;22;20264;-79
2021/08/20 01:09:08;;;;;;;17.88;10.32;;;;;16.60;101055.00;;;;12936618;22;20256;-79
2021/08/20 01:14:14;;;;;;;19.08;10.48;;;;;16.60;101059.00;;;;12936466;22;20248;-78
2021/08/20 01:19:16;;;;;;;20.88;10.27;;;;;16.70;101061.00;;;;12890477;22;20888;-78
2021/08/20 01:24:20;;;;;;;16.80;10.07;;;;;16.70;101059.00;;;;12866429;22;20169;-79
2021/08/20 01:29:23;;;;;;;15.65;9.73;;;;;16.70;101056.00;;;;12937329;22;20236;-78
2021/08/20 01:34:24;;;;;;;13.02;9.07;;;;;16.70;101052.00;;;;12864965;22;20204;-79
2021/08/20 01:39:29;;;;;;;11.52;7.55;;;;;16.60;101050.00;;;;12866569;22;20276;-79
2021/08/20 01:44:30;;;;;;;9.85;7.65;;;;;16.60;101050.00;;;;12890221;22;20243;-79
2021/08/20 01:49:32;;;;;;;11.38;7.50;;;;;16.60;101036.00;;;;12889977;22;20604;-78
2021/08/20 01:54:33;;;;;;;7.65;6.05;;;;;16.60;101049.00;;;;12867297;22;20307;-79
2021/08/20 01:59:35;;;;;;;9.98;5.65;;;;;16.60;101042.00;;;;12915449;22;20220;-79
2021/08/20 02:04:38;;;;;;;8.40;5.43;;;;;16.70;101043.00;;;;12865165;22;20251;-78
2021/08/20 02:09:39;;;;;;;8.38;4.10;;;;;16.70;101043.00;;;;12936025;22;20609;-79
2021/08/20 02:14:40;;;;;;;5.88;3.78;;;;;16.70;101048.00;;;;12889908;22;20680;-78
2021/08/20 02:19:42;;;;;;;5.30;4.20;;;;;16.80;101046.00;;;;12864941;22;20268;-79
2021/08/20 02:24:44;;;;;;;7.55;4.70;;;;;16.80;101044.00;;;;12888660;22;20201;-79
2021/08/20 02:29:46;;;;;;;4.88;4.13;;;;;16.80;101046.00;;;;12888835;22;20170;-78
2021/08/20 02:34:48;;;;;;;4.97;3.90;;;;;16.80;101050.00;;;;12890121;22;20185;-79
2021/08/20 02:39:50;;;;;;;8.65;4.80;;;;;16.80;101034.00;;;;12840559;22;20172;-79
2021/08/20 02:44:51;;;;;;;5.15;4.65;;;;;16.80;101037.00;;;;12890348;22;20170;-78
2021/08/20 02:49:54;;;;;;;6.20;5.18;;;;;16.80;101040.00;;;;12939490;22;20166;-78
2021/08/20 02:54:55;;;;;;;6.40;4.50;;;;;16.80;101041.00;;;;12914449;22;20189;-78
2021/08/20 03:00:03;;;;;;;5.43;4.25;;;;;16.90;101036.00;;;;12891496;22;20805;-78
2021/08/20 03:05:07;;;;;;;5.40;4.43;;;;;16.90;101039.00;;;;12891358;22;20645;-78
2021/08/20 03:10:31;;;;;;;7.07;4.03;;;;;16.90;101031.00;;;;12876568;22;20229;-78
2021/08/20 03:15:32;;;;;;;6.93;4.72;;;;;16.90;101036.00;;;;12891029;22;20911;-79
2021/08/20 03:20:35;;;;;;;5.50;4.93;;;;;16.80;101028.00;;;;12865440;22;20479;-79
2021/08/20 03:25:47;;;;;;;6.80;4.75;;;;;16.80;101030.00;;;;12891464;22;20173;-79
2021/08/20 03:30:48;;;;;;;6.97;5.30;;;;;16.80;101026.00;;;;12915957;22;20635;-79
2021/08/20 03:35:50;;;;;;;7.97;5.43;;;;;16.80;101031.00;;;;12916082;22;20228;-79
2021/08/20 03:40:56;;;;;;;7.97;5.38;;;;;16.70;101032.00;;;;12895325;22;20176;-84
2021/08/20 03:46:04;;;;;;;8.93;6.80;;;;;16.60;101025.00;;;;12921466;22;20914;-82
2021/08/20 03:51:07;;;;;;;8.45;6.03;;;;;16.50;101034.00;;;;12920539;22;20231;-82
2021/08/20 03:56:09;;;;;;;7.80;6.27;;;;;16.50;101033.00;;;;12870758;22;20189;-84
2021/08/20 04:01:16;;;;;;;8.55;5.88;;;;;16.50;101029.00;;;;12899011;22;20170;-86
2021/08/20 04:06:21;;;;;;;9.48;5.93;;;;;16.40;101030.00;;;;12896970;22;20185;-84
2021/08/20 04:11:22;;;;;;;9.45;6.38;;;;;16.40;101029.00;;;;12894912;22;20182;-84
2021/08/20 04:16:36;;;;;;;8.70;6.13;;;;;16.40;101020.00;;;;12919771;22;20197;-82
2021/08/20 04:21:38;;;;;;;7.95;5.95;;;;;16.40;101024.00;;;;12893940;22;20268;-82
2021/08/20 04:26:41;;;;;;;9.73;6.43;;;;;16.40;101023.00;;;;12869034;22;20680;-81
2021/08/20 04:32:03;;;;;;;9.95;8.15;;;;;16.40;101026.00;;;;12851122;22;20181;-81
2021/08/20 04:37:23;;;;;;;12.80;10.07;;;;;16.40;101023.00;;;;12892612;22;20235;-82
2021/08/20 04:42:25;;;;;;;15.50;10.63;;;;;16.40;101036.00;;;;12893334;22;20181;-81
2021/08/20 04:47:45;;;;;;;12.80;9.73;;;;;16.40;101029.00;;;;12893452;22;20223;-81
2021/08/20 04:53:06;;;;;;;14.30;10.60;;;;;16.40;101029.00;;;;12896402;22;20252;-81
2021/08/20 04:58:28;;;;;;;13.30;10.05;;;;;16.50;101046.00;;;;12898147;22;20193;-81
2021/08/20 05:03:31;;;;;;;13.38;11.18;;;;;16.50;101052.00;;;;12891798;22;20169;-81
2021/08/20 05:08:32;;;;;;;12.70;10.30;;;;;16.50;101050.00;;;;12916503;22;20174;-80
2021/08/20 05:13:33;;;;;;;12.77;9.63;;;;;16.50;101061.00;;;;12891398;22;20201;-80
2021/08/20 05:18:34;;;;;;;13.02;10.02;;;;;16.60;101069.00;;;;12916730;22;20193;-80
2021/08/20 05:23:35;;;;;;;13.68;10.40;;;;;16.60;101072.00;;;;12867188;23;20180;-80
2021/08/20 05:28:37;;;;;;;12.75;9.25;;;;;16.70;101070.00;;;;12892746;22;20175;-80
2021/08/20 05:33:38;;;;;;;15.05;9.52;;;;;16.80;101073.00;;;;12866755;22;20197;-80
2021/08/20 05:38:39;;;;;;;11.27;9.83;;;;;16.80;101077.00;;;;12891641;22;20201;-80
2021/08/20 05:43:41;;;;;;;11.45;9.77;;;;;16.90;101087.00;;;;12937376;22;20162;-80
2021/08/20 05:48:42;;;;;;;16.55;9.30;;;;;17.00;101095.00;;;;12866491;22;20169;-81
2021/08/20 05:53:43;;;;;;;10.63;9.13;;;;;17.00;101085.00;;;;12892277;22;20224;-80
2021/08/20 05:58:45;;;;;;;13.15;8.93;;;;;17.00;101105.00;;;;12918121;22;20193;-80
2021/08/20 06:03:47;;;;;;;13.70;9.65;;;;;17.20;101111.00;;;;12892783;22;20174;-81
2021/08/20 06:09:03;;;;;;;10.20;8.57;;;;;17.30;101109.00;;;;12917496;22;20272;-80
2021/08/20 06:14:04;;;;;;;11.50;8.60;;;;;17.60;101114.00;;;;12890570;22;20177;-80
2021/08/20 06:19:05;;;;;;;11.68;8.82;;;;;17.70;101123.00;;;;12865808;22;20205;-80
2021/08/20 06:24:07;;;;;;;11.88;8.70;;;;;17.80;101122.00;;;;12917854;22;20501;-80
2021/08/20 06:29:08;;;;;;;12.98;9.90;;;;;18.00;101119.00;;;;12868176;22;20182;-79
2021/08/20 06:34:09;;;;;;;12.00;10.75;;;;;18.20;101127.00;;;;12868254;22;20244;-80
2021/08/20 06:39:11;;;;;;;12.02;10.00;;;;;18.50;101126.00;;;;12919837;22;20193;-80
2021/08/20 06:44:13;;;;;;;11.93;10.70;;;;;18.60;101136.00;;;;12892642;22;20208;-80
2021/08/20 06:49:14;;;;;;;13.15;10.70;;;;;18.80;101133.00;;;;12893212;22;20747;-80
2021/08/20 06:54:15;;;;;;;12.80;9.75;;;;;19.10;101136.00;;;;12917633;22;20170;-80
2021/08/20 06:59:16;;;;;;;10.52;9.10;;;;;19.40;101154.00;;;;12918185;22;20232;-80
2021/08/20 07:04:18;;;;;;;11.98;8.68;;;;;19.40;101151.00;;;;12918185;22;20161;-80
2021/08/20 07:09:19;;;;;;;9.25;7.80;;;;;19.50;101160.00;;;;12893156;23;20180;-80
2021/08/20 07:14:20;;;;;;;8.20;7.40;;;;;19.60;101166.00;;;;12918460;22;20169;-80
2021/08/20 07:19:21;;;;;;;7.80;6.85;;;;;19.60;101173.00;;;;12891693;22;20197;-80
2021/08/20 07:24:23;;;;;;;8.30;6.72;;;;;19.60;101175.00;;;;12892490;22;20537;-80
2021/08/20 07:29:24;;;;;;;8.05;6.03;;;;;19.60;101170.00;;;;12892050;22;20231;-80
2021/08/20 07:34:25;;;;;;;7.75;6.18;;;;;19.70;101175.00;;;;12916457;22;20181;-79
2021/08/20 07:39:27;;;;;;;7.20;6.18;;;;;19.90;101175.00;;;;12891776;22;20204;-79
2021/08/20 07:44:28;;;;;;;6.15;5.55;;;;;20.00;101185.00;;;;12891244;22;20169;-80
2021/08/20 07:49:29;;;;;;;8.35;5.90;;;;;20.00;101187.00;;;;12892095;22;20174;-80
2021/08/20 07:54:31;;;;;;;8.07;5.68;;;;;20.00;101188.00;;;;12919346;22;20717;-80
2021/08/20 07:59:32;;;;;;;7.78;6.55;;;;;20.20;101192.00;;;;12917284;22;20201;-80
2021/08/20 08:04:33;;;;;;;9.55;5.50;;;;;20.30;101186.00;;;;12892028;22;20201;-80
2021/08/20 08:09:35;;;;;;;6.13;5.50;;;;;20.20;101179.00;;;;12917282;22;20181;-80
2021/08/20 08:14:36;;;;;;;8.07;5.75;;;;;20.10;101186.00;;;;12917019;22;20176;-80
2021/08/20 08:19:37;;;;;;;6.75;5.47;;;;;20.20;101188.00;;;;12917904;22;20264;-80
2021/08/20 08:24:39;;;;;;;8.63;5.53;;;;;20.10;101184.00;;;;12918184;22;20505;-81
2021/08/20 08:29:40;;;;;;;8.40;5.53;;;;;20.10;101194.00;;;;12869357;22;20181;-80
2021/08/20 08:34:41;;;;;;;5.88;5.25;;;;;20.20;101193.00;;;;12917764;22;20166;-80
2021/08/20 08:39:42;;;;;;;5.93;5.30;;;;;20.90;101199.00;;;;12891159;22;20197;-80
2021/08/20 08:44:44;;;;;;;5.28;4.80;;;;;21.50;101203.00;;;;12892475;22;20170;-80
2021/08/20 08:49:48;;;;;;;5.35;4.75;;;;;21.40;101211.00;;;;12916130;22;20170;-80
2021/08/20 08:54:49;;;;;;;6.03;4.55;;;;;21.60;101217.00;;;;12916090;22;20285;-80
2021/08/20 08:59:51;;;;;;;5.57;3.85;;;;;22.10;101215.00;;;;12916227;22;20197;-79
2021/08/20 09:05:10;;;;;;;3.90;3.50;;;;;22.90;101206.00;;;;12916068;22;20782;-80
2021/08/20 09:10:25;;;;;;;4.53;3.40;;;;;23.60;101209.00;;;;12866556;22;20708;-79
2021/08/20 09:15:32;;;;;;;9.20;3.33;;;;;24.20;101205.00;;;;12916478;22;20239;-80
2021/08/20 09:20:36;;;;;;;4.05;3.20;;;;;24.00;101207.00;;;;12916863;22;20170;-80
2021/08/20 09:25:40;;;;;;;3.72;2.42;;;;;23.80;101209.00;;;;12915470;22;20173;-80
2021/08/20 09:31:03;;;;;;;3.55;2.78;;;;;24.20;101203.00;;;;12890793;22;20186;-79
2021/08/20 09:36:06;;;;;;;3.47;3.10;;;;;24.30;101205.00;;;;12890513;22;20199;-79
2021/08/20 09:41:13;;;;;;;2.55;2.03;;;;;24.90;101203.00;;;;12915281;22;20177;-80
2021/08/20 09:46:17;;;;;;;6.07;2.35;;;;;24.10;101210.00;;;;12890395;22;20173;-79
2021/08/20 09:51:31;;;;;;;4.15;2.13;;;;;23.40;101206.00;;;;12916933;22;20398;-80
2021/08/20 09:56:33;;;;;;;3.20;2.53;;;;;23.20;101201.00;;;;12891075;22;20197;-80
2021/08/20 10:01:39;;;;;;;2.92;2.35;;;;;25.00;101204.00;;;;12917738;22;20224;-79
2021/08/20 10:06:46;;;;;;;2.13;1.60;;;;;24.50;101211.00;;;;12917028;22;20173;-79
2021/08/20 10:11:52;;;;;;;2.08;1.90;;;;;25.20;101198.00;;;;12918567;22;20169;-80
2021/08/20 10:16:53;;;;;;;3.53;1.80;;;;;26.50;101194.00;;;;12919403;22;20204;-80
2021/08/20 10:21:56;;;;;;;2.10;1.70;;;;;26.70;101196.00;;;;12893872;22;20201;-80
2021/08/20 10:27:00;;;;;;;2.75;1.70;;;;;27.30;101188.00;;;;12940180;22;20184;-80
2021/08/20 10:32:11;;;;;;;2.88;1.77;;;;;26.40;101193.00;;;;12892640;22;20166;-80
2021/08/20 10:37:28;;;;;;;2.67;1.73;;;;;27.40;101186.00;;;;12892561;22;20197;-80
2021/08/20 10:42:37;;;;;;;2.95;1.50;;;;;27.90;101183.00;;;;12939862;22;20466;-80
2021/08/20 10:47:45;;;;;;;3.50;1.50;;;;;27.50;101191.00;;;;12918493;22;20173;-81
2021/08/20 10:52:48;;;;;;;2.72;1.40;;;;;26.70;101195.00;;;;12867629;22;20170;-80
2021/08/20 10:57:49;;;;;;;1.83;1.20;;;;;27.10;101186.00;;;;12893644;22;20197;-81
2021/08/20 11:02:56;;;;;;;3.75;1.50;;;;;28.20;101182.00;;;;12892918;23;20180;-80
2021/08/20 11:07:58;;;;;;;1.55;1.10;;;;;28.90;101180.00;;;;12918468;22;20588;-81
2021/08/20 11:13:01;;;;;;;3.85;1.40;;;;;28.60;101185.00;;;;12917435;22;20169;-80
2021/08/20 11:18:05;;;;;;;1.77;1.30;;;;;28.50;101188.00;;;;12892559;22;20243;-80
2021/08/20 11:23:09;;;;;;;2.28;1.30;;;;;29.10;101182.00;;;;12868870;22;20166;-81
2021/08/20 11:28:26;;;;;;;3.00;1.17;;;;;29.20;101187.00;;;;12893391;22;20685;-80
2021/08/20 11:33:30;;;;;;;2.13;1.15;;;;;28.40;101182.00;;;;12943508;22;20169;-80
2021/08/20 11:38:36;;;;;;;1.90;1.40;;;;;28.80;101186.00;;;;12893253;22;20178;-80
2021/08/20 11:43:45;;;;;;;3.03;1.42;;;;;29.50;101178.00;;;;12869706;22;20777;-81
2021/08/20 11:48:52;;;;;;;3.92;1.50;;;;;30.20;101190.00;;;;12941032;22;20192;-80
2021/08/20 11:53:58;;;;;;;2.83;1.83;;;;;30.60;101191.00;;;;12918122;22;20608;-81
2021/08/20 11:59:10;;;;;;;3.10;1.10;;;;;31.00;101189.00;;;;12844440;22;20177;-80
2021/08/20 12:04:11;;;;;;;2.53;1.50;;;;;31.20;101191.00;;;;12892883;22;20165;-81
2021/08/20 12:09:15;;;;;;;3.35;1.40;;;;;31.10;101200.00;;;;12893146;22;20212;-81
2021/08/20 12:14:21;;;;;;;2.10;1.10;;;;;30.60;101198.00;;;;12893617;22;20260;-80
2021/08/20 12:19:42;;;;;;;4.20;1.50;;;;;29.90;101197.00;;;;12939968;22;20663;-81
2021/08/20 12:24:48;;;;;;;2.15;1.13;;;;;29.90;101201.00;;;;12919809;22;20166;-81
2021/08/20 12:29:58;;;;;;;2.75;1.50;;;;;29.90;101204.00;;;;12845538;22;20193;-81
2021/08/20 12:35:06;;;;;;;3.72;1.63;;;;;30.20;101210.00;;;;12893120;22;20170;-81
2021/08/20 12:40:34;;;;;;;1.27;1.10;;;;;30.70;101199.00;;;;12872246;22;20227;-81
2021/08/20 12:45:36;;;;;;;4.15;1.20;;;;;31.00;101197.00;;;;12892673;22;20517;-81
2021/08/20 12:50:38;;;;;;;2.28;1.27;;;;;31.40;101182.00;;;;12894513;22;20206;-81
2021/08/20 12:55:44;;;;;;;1.73;1.27;;;;;31.20;101186.00;;;;12895177;22;20177;-81
2021/08/20 13:00:45;;;;;;;3.25;1.75;;;;;30.80;101190.00;;;;12918706;22;20868;-81
2021/08/20 13:05:59;;;;;;;3.58;1.48;;;;;29.10;101184.00;;;;12914732;22;20193;-80
2021/08/20 13:11:03;;;;;;;2.15;1.40;;;;;27.90;101175.00;;;;12892561;22;20201;-80
2021/08/20 13:16:04;;;;;;;5.10;1.73;;;;;27.20;101176.00;;;;12892308;22;20280;-80
2021/08/20 13:21:06;;;;;;;3.95;1.50;;;;;27.80;101175.00;;;;12891177;22;20235;-80
2021/08/20 13:26:07;;;;;;;7.15;1.63;;;;;27.80;101187.00;;;;12914830;22;20605;-80
2021/08/20 13:31:09;;;;;;;1.60;1.30;;;;;26.90;101181.00;;;;12891699;22;20173;-80
2021/08/20 13:36:10;;;;;;;6.10;2.05;;;;;26.10;101176.00;;;;12892216;22;20688;-80
2021/08/20 13:41:11;;;;;;;4.20;1.80;;;;;26.30;101183.00;;;;12892963;22;20173;-80
2021/08/20 13:46:13;;;;;;;4.45;1.55;;;;;26.10;101188.00;;;;12937453;22;20208;-80
2021/08/20 13:51:14;;;;;;;3.40;1.77;;;;;26.70;101181.00;;;;12938727;22;20161;-80
2021/08/20 13:56:15;;;;;;;4.07;1.67;;;;;26.50;101177.00;;;;12913469;22;20627;-80
2021/08/20 14:01:16;;;;;;;3.30;1.48;;;;;26.20;101185.00;;;;12938506;22;20638;-80
2021/08/20 14:06:18;;;;;;;2.42;1.48;;;;;25.40;101195.00;;;;12939122;22;20756;-79
2021/08/20 14:11:19;;;;;;;6.93;2.05;;;;;24.80;101199.00;;;;12936843;22;20208;-80
2021/08/20 14:16:20;;;;;;;4.47;1.40;;;;;24.40;101200.00;;;;12937591;22;20185;-79
2021/08/20 14:21:22;;;;;;;4.22;1.63;;;;;24.80;101196.00;;;;12890125;22;20169;-79
2021/08/20 14:26:23;;;;;;;1.98;1.70;;;;;24.30;101200.00;;;;12865879;22;20193;-80
2021/08/20 14:31:24;;;;;;;2.72;1.88;;;;;24.20;101207.00;;;;12866559;22;20174;-79
2021/08/20 14:36:29;;;;;;;2.88;1.60;;;;;24.10;101210.00;;;;12935817;22;20165;-79
2021/08/20 14:41:31;;;;;;;5.00;1.95;;;;;23.90;101213.00;;;;12891162;22;20165;-80
2021/08/20 14:46:32;;;;;;;2.05;1.55;;;;;23.80;101211.00;;;;12892914;22;20259;-79
2021/08/20 14:51:33;;;;;;;2.53;1.48;;;;;24.00;101210.00;;;;12919047;22;20173;-79
2021/08/20 14:56:34;;;;;;;2.80;1.42;;;;;24.00;101210.00;;;;12894464;22;20179;-79
2021/08/20 15:01:36;;;;;;;2.60;1.80;;;;;24.40;101207.00;;;;12940912;22;20166;-80
2021/08/20 15:06:37;;;;;;;3.28;1.50;;;;;24.90;101212.00;;;;12893789;22;20220;-80
2021/08/20 15:11:38;;;;;;;2.83;1.35;;;;;25.20;101213.00;;;;12845319;22;20203;-80
2021/08/20 15:16:39;;;;;;;2.92;1.20;;;;;24.90;101221.00;;;;12892245;22;20189;-80
2021/08/20 15:21:41;;;;;;;3.65;1.92;;;;;24.90;101217.00;;;;12893377;22;20169;-80
2021/08/20 15:26:42;;;;;;;4.55;1.98;;;;;24.80;101221.00;;;;12893066;22;20199;-80
2021/08/20 15:31:43;;;;;;;2.40;1.45;;;;;24.70;101219.00;;;;12893628;22;20217;-79
2021/08/20 15:36:45;;;;;;;2.97;1.38;;;;;25.00;101202.00;;;;12867209;22;20612;-80
2021/08/20 15:41:46;;;;;;;2.78;1.35;;;;;25.30;101207.00;;;;12892801;22;20809;-80
2021/08/20 15:46:47;;;;;;;4.22;1.90;;;;;25.60;101208.00;;;;12868931;22;20193;-79
2021/08/20 15:51:48;;;;;;;2.72;1.85;;;;;25.70;101212.00;;;;12917256;22;20170;-79
2021/08/20 15:56:49;;;;;;;2.00;1.40;;;;;25.40;101219.00;;;;12892056;22;20184;-79
2021/08/20 16:01:51;;;;;;;3.67;1.90;;;;;25.30;101221.00;;;;12918381;22;20170;-79
2021/08/20 16:06:52;;;;;;;3.55;1.85;;;;;25.00;101225.00;;;;12917856;22;20193;-80
2021/08/20 16:11:53;;;;;;;2.83;1.65;;;;;24.80;101221.00;;;;12892906;22;20173;-79
2021/08/20 16:16:55;;;;;;;2.70;2.00;;;;;24.50;101227.00;;;;12892084;22;20251;-79
2021/08/20 16:21:56;;;;;;;2.72;1.50;;;;;24.40;101222.00;;;;12892214;22;20169;-79
2021/08/20 16:27:01;;;;;;;2.90;1.30;;;;;24.10;101230.00;;;;12891977;22;20197;-80
2021/08/20 16:32:02;;;;;;;7.93;2.17;;;;;23.60;101222.00;;;;12917069;22;20598;-79
2021/08/20 16:37:04;;;;;;;2.45;1.38;;;;;23.50;101222.00;;;;12891470;22;20189;-79
2021/08/20 16:42:05;;;;;;;2.30;1.48;;;;;23.40;101225.00;;;;12916577;22;20174;-79
2021/08/20 16:47:10;;;;;;;3.00;1.50;;;;;23.30;101233.00;;;;12938435;22;20240;-80
2021/08/20 16:52:11;;;;;;;5.82;1.75;;;;;23.10;101225.00;;;;12866237;22;20245;-79
2021/08/20 16:57:12;;;;;;;6.72;1.80;;;;;22.90;101238.00;;;;12913234;22;20662;-79
2021/08/20 17:02:14;;;;;;;4.25;1.92;;;;;22.80;101239.00;;;;12917294;22;20170;-79
2021/08/20 17:07:16;;;;;;;3.47;1.90;;;;;22.80;101235.00;;;;12891711;22;20201;-79
2021/08/20 17:12:17;;;;;;;2.85;1.95;;;;;22.70;101241.00;;;;12891525;22;20540;-79
2021/08/20 17:17:18;;;;;;;4.35;1.90;;;;;22.60;101238.00;;;;12915491;22;20193;-79
2021/08/20 17:22:19;;;;;;;2.83;1.80;;;;;22.40;101236.00;;;;12890668;22;20624;-79
2021/08/20 17:27:21;;;;;;;6.47;1.38;;;;;22.40;101236.00;;;;12865528;22;20405;-79
2021/08/20 17:32:22;;;;;;;2.42;1.70;;;;;22.30;101246.00;;;;12867690;22;20176;-79
2021/08/20 17:37:24;;;;;;;3.58;2.15;;;;;22.30;101237.00;;;;12916147;22;20178;-79
2021/08/20 17:42:25;;;;;;;4.07;1.80;;;;;22.40;101241.00;;;;12915641;22;20632;-79
2021/08/20 17:47:26;;;;;;;3.53;1.63;;;;;22.50;101245.00;;;;12936111;22;20182;-79
2021/08/20 17:52:27;;;;;;;4.55;1.80;;;;;22.40;101239.00;;;;12891077;22;20228;-79
2021/08/20 17:57:28;;;;;;;3.35;1.60;;;;;22.40;101248.00;;;;12916301;22;20173;-79
2021/08/20 18:02:32;;;;;;;3.70;2.25;;;;;22.30;101248.00;;;;12866458;22;20177;-78
2021/08/20 18:07:33;;;;;;;3.88;2.55;;;;;22.10;101240.00;;;;12962899;22;20296;-79
2021/08/20 18:12:36;;;;;;;6.90;2.25;;;;;21.90;101259.00;;;;12937031;22;20174;-79
2021/08/20 18:17:42;;;;;;;5.50;1.95;;;;;21.70;101253.00;;;;12890821;22;20189;-79
2021/08/20 18:22:43;;;;;;;4.80;2.55;;;;;21.40;101252.00;;;;12842742;22;20177;-79
2021/08/20 18:27:44;;;;;;;3.83;1.80;;;;;21.20;101256.00;;;;12868201;22;20197;-79
2021/08/20 18:32:45;;;;;;;8.90;2.60;;;;;20.90;101259.00;;;;12918066;22;20177;-79
2021/08/20 18:37:46;;;;;;;3.30;2.25;;;;;20.60;101267.00;;;;12844459;22;20173;-79
2021/08/20 18:42:49;;;;;;;3.60;2.03;;;;;20.30;101275.00;;;;12867779;23;20173;-79
2021/08/20 18:47:50;;;;;;;3.28;2.28;;;;;20.00;101280.00;;;;12892188;22;20198;-78
2021/08/20 18:52:52;;;;;;;3.22;2.20;;;;;19.80;101281.00;;;;12938218;22;20236;-78
2021/08/20 18:57:53;;;;;;;4.63;2.40;;;;;19.70;101281.00;;;;12917674;22;20196;-78
2021/08/20 19:02:55;;;;;;;5.18;2.70;;;;;19.50;101297.00;;;;12917143;22;20252;-78
2021/08/20 19:07:56;;;;;;;2.25;2.00;;;;;19.40;101298.00;;;;12866664;22;20520;-78
2021/08/20 19:12:58;;;;;;;2.92;2.20;;;;;19.30;101301.00;;;;12891630;23;20177;-78
2021/08/20 19:17:59;;;;;;;3.58;2.15;;;;;19.20;101315.00;;;;12891385;22;20193;-78
2021/08/20 19:23:01;;;;;;;4.20;2.50;;;;;19.10;101313.00;;;;12892469;22;20630;-78
2021/08/20 19:28:03;;;;;;;4.50;2.33;;;;;19.10;101318.00;;;;12865316;22;20743;-78
2021/08/20 19:33:05;;;;;;;4.00;2.70;;;;;19.00;101324.00;;;;12866465;22;20201;-79
2021/08/20 19:38:06;;;;;;;3.25;2.42;;;;;18.90;101323.00;;;;12867786;22;20892;-79
2021/08/20 19:43:12;;;;;;;4.30;2.20;;;;;18.80;101329.00;;;;12891476;22;20166;-79
2021/08/20 19:48:13;;;;;;;3.65;2.42;;;;;18.70;101322.00;;;;12865893;22;20259;-79
2021/08/20 19:53:14;;;;;;;3.67;2.80;;;;;18.60;101325.00;;;;12866873;22;20753;-78
2021/08/20 19:58:15;;;;;;;3.63;2.50;;;;;18.60;101331.00;;;;12937532;22;20343;-79
2021/08/20 20:03:16;;;;;;;5.53;2.67;;;;;18.60;101327.00;;;;12891171;23;20170;-79
2021/08/20 20:08:18;;;;;;;2.58;2.17;;;;;18.60;101326.00;;;;12891317;22;20240;-78
2021/08/20 20:13:19;;;;;;;5.50;2.83;;;;;18.60;101323.00;;;;12939036;22;20326;-79
2021/08/20 20:18:20;;;;;;;4.00;3.22;;;;;18.50;101321.00;;;;12865356;22;20193;-78
2021/08/20 20:23:21;;;;;;;4.95;3.35;;;;;18.40;101326.00;;;;12937924;22;20593;-78
2021/08/20 20:28:22;;;;;;;6.72;2.90;;;;;18.30;101329.00;;;;12867073;22;20224;-78
2021/08/20 20:33:23;;;;;;;8.52;3.50;;;;;18.20;101325.00;;;;12891521;22;20711;-78
2021/08/20 20:38:24;;;;;;;6.80;4.18;;;;;18.10;101325.00;;;;12915721;22;20695;-78
2021/08/20 20:43:26;;;;;;;4.68;4.00;;;;;18.00;101327.00;;;;12938229;22;20185;-78
2021/08/20 20:48:27;;;;;;;5.20;3.65;;;;;17.90;101321.00;;;;12938423;22;20189;-79
2021/08/20 20:53:29;;;;;;;4.22;3.30;;;;;17.90;101322.00;;;;12891720;22;20466;-78
2021/08/20 20:58:30;;;;;;;5.95;3.80;;;;;17.90;101324.00;;;;12890325;22;20169;-79
2021/08/20 21:03:35;;;;;;;5.78;3.40;;;;;17.90;101322.00;;;;12891633;22;20208;-78
2021/08/20 21:08:37;;;;;;;7.22;3.67;;;;;17.90;101331.00;;;;12936566;22;20192;-78
2021/08/20 21:13:40;;;;;;;8.73;3.47;;;;;18.00;101324.00;;;;12915614;22;20794;-78
2021/08/20 21:18:41;;;;;;;5.38;3.08;;;;;18.00;101326.00;;;;12937574;22;20182;-78
2021/08/20 21:23:42;;;;;;;6.55;3.55;;;;;18.00;101324.00;;;;12936925;22;20235;-78
2021/08/20 21:28:43;;;;;;;5.03;3.42;;;;;17.80;101328.00;;;;12866197;22;20215;-78
2021/08/20 21:33:45;;;;;;;7.30;3.67;;;;;17.70;101320.00;;;;12891328;22;20209;-78
2021/08/20 21:38:46;;;;;;;5.53;3.80;;;;;17.60;101314.00;;;;12865053;23;20180;-78
2021/08/20 21:43:47;;;;;;;6.78;3.78;;;;;17.50;101314.00;;;;12914883;22;20236;-78
2021/08/20 21:48:49;;;;;;;7.28;3.35;;;;;17.40;101304.00;;;;12890410;23;20634;-78
2021/08/20 21:53:52;;;;;;;4.63;3.70;;;;;17.30;101306.00;;;;12911279;22;20296;-78
2021/08/20 21:58:53;;;;;;;7.22;3.97;;;;;17.10;101305.00;;;;12912471;22;20172;-78
2021/08/20 22:03:54;;;;;;;7.47;4.50;;;;;17.10;101311.00;;;;12866434;22;20174;-78
2021/08/20 22:08:55;;;;;;;6.97;3.95;;;;;17.00;101316.00;;;;12935969;22;20203;-79
2021/08/20 22:13:57;;;;;;;6.60;4.28;;;;;16.90;101300.00;;;;12910497;22;20612;-78
2021/08/20 22:18:58;;;;;;;6.45;4.75;;;;;16.80;101302.00;;;;12937140;22;20193;-78
2021/08/20 22:23:59;;;;;;;10.52;7.72;;;;;16.80;101301.00;;;;12890537;22;20178;-78
2021/08/20 22:29:06;;;;;;;9.48;6.72;;;;;16.80;101306.00;;;;12889931;22;20189;-78
2021/08/20 22:34:07;;;;;;;8.90;7.70;;;;;16.80;101306.00;;;;12914212;22;20192;-78
2021/08/20 22:39:08;;;;;;;10.98;8.32;;;;;16.70;101304.00;;;;12889656;22;20489;-78
2021/08/20 22:44:12;;;;;;;8.00;6.45;;;;;16.70;101309.00;;;;12935178;22;20494;-78
2021/08/20 22:49:13;;;;;;;10.47;7.50;;;;;16.60;101308.00;;;;12889042;22;20189;-78
2021/08/20 22:54:14;;;;;;;10.10;6.72;;;;;16.50;101312.00;;;;12864396;22;20585;-78
2021/08/20 22:59:16;;;;;;;8.10;7.10;;;;;16.50;101309.00;;;;12864652;22;20170;-78
2021/08/20 23:04:17;;;;;;;12.20;7.45;;;;;16.40;101299.00;;;;12916097;22;20196;-78
2021/08/20 23:09:18;;;;;;;9.07;7.20;;;;;16.40;101300.00;;;;12892724;22;20201;-78
2021/08/20 23:14:19;;;;;;;13.00;8.18;;;;;16.30;101295.00;;;;12866736;23;20170;-78
2021/08/20 23:19:20;;;;;;;10.10;8.17;;;;;16.20;101297.00;;;;12891149;22;20220;-78
2021/08/20 23:24:21;;;;;;;9.90;8.90;;;;;16.20;101298.00;;;;12842413;22;20180;-78
2021/08/20 23:29:23;;;;;;;10.83;9.03;;;;;16.20;101293.00;;;;12912265;22;20278;-78
2021/08/20 23:34:24;;;;;;;12.23;8.23;;;;;16.20;101303.00;;;;12892440;22;20637;-78
2021/08/20 23:39:25;;;;;;;13.13;7.47;;;;;16.10;101305.00;;;;12866385;22;20183;-78
2021/08/20 23:44:26;;;;;;;8.53;7.50;;;;;16.00;101300.00;;;;12891422;22;20170;-78
2021/08/20 23:49:27;;;;;;;7.87;6.67;;;;;16.00;101298.00;;;;12891493;22;20207;-78
2021/08/20 23:54:28;;;;;;;8.37;6.13;;;;;16.00;101304.00;;;;12891085;22;20203;-78
2021/08/20 23:59:30;;;;;;;10.77;6.93;;;;;15.90;101302.00;;;;12890488;22;20841;-79
